createdAt,value
2019-02-14T00:01:12.746Z,99081.48
2019-02-14T00:04:19.625Z,99081.66
2019-02-14T00:07:26.505Z,99070.69
2019-02-14T00:10:33.432Z,99072.20
2019-02-14T00:13:40.224Z,99068.08
2019-02-14T00:16:47.185Z,99076.48
2019-02-14T00:19:54.077Z,99066.38
2019-02-14T00:23:00.917Z,99072.94
2019-02-14T00:26:07.774Z,99070.27
2019-02-14T00:29:14.669Z,99080.80
2019-02-14T00:32:21.571Z,99073.91
2019-02-14T00:35:28.533Z,99075.59
2019-02-14T00:38:35.395Z,99072.88
2019-02-14T00:41:42.483Z,99064.63
2019-02-14T00:44:49.597Z,99063.20
2019-02-14T00:47:56.501Z,99063.36
2019-02-14T00:51:03.649Z,99065.84
2019-02-14T00:54:10.772Z,99064.30
2019-02-14T00:57:17.628Z,99067.05
2019-02-14T01:00:24.640Z,99067.20
2019-02-14T01:03:31.511Z,99066.70
2019-02-14T01:06:39.727Z,99066.66
2019-02-14T01:09:46.592Z,99072.30
2019-02-14T01:12:53.484Z,99073.01
2019-02-14T01:16:00.287Z,99068.48
2019-02-14T01:19:07.125Z,99060.42
2019-02-14T01:22:14.028Z,99060.94
2019-02-14T01:25:20.859Z,99054.69
2019-02-14T01:28:27.720Z,99046.63
2019-02-14T01:31:34.648Z,99048.77
2019-02-14T01:34:41.568Z,99055.27
2019-02-14T01:37:48.442Z,99061.27
2019-02-14T01:40:55.317Z,99060.80
2019-02-14T01:44:02.628Z,99055.71
2019-02-14T01:47:10.890Z,99062.66
2019-02-14T01:50:17.899Z,99063.84
2019-02-14T01:53:24.820Z,99061.02
2019-02-14T01:56:31.783Z,99061.67
2019-02-14T01:59:38.746Z,99067.06
2019-02-14T02:02:45.817Z,99072.85
2019-02-14T02:05:52.624Z,99070.23
2019-02-14T02:08:59.751Z,99075.41
2019-02-14T02:12:08.293Z,99085.52
2019-02-14T02:15:16.171Z,99084.95
2019-02-14T02:18:23.171Z,99082.29
2019-02-14T02:21:30.097Z,99081.14
2019-02-14T02:24:39.921Z,99081.16
2019-02-14T02:27:49.167Z,99081.80
2019-02-14T02:31:03.059Z,99079.02
2019-02-14T02:34:11.597Z,99079.64
2019-02-14T02:37:21.956Z,99081.64
2019-02-14T02:40:31.976Z,99085.56
2019-02-14T02:43:41.972Z,99075.67
2019-02-14T02:46:52.519Z,99078.20
2019-02-14T02:50:04.063Z,99078.17
2019-02-14T02:53:13.451Z,99070.01
2019-02-14T02:56:28.680Z,99070.65
2019-02-14T02:59:38.695Z,99076.55
2019-02-14T03:02:49.217Z,99082.98
2019-02-14T03:05:59.268Z,99086.06
2019-02-14T03:09:11.838Z,99091.98
2019-02-14T03:12:42.557Z,99095.52
2019-02-14T03:15:53.427Z,99093.53
2019-02-14T03:19:01.783Z,99100.84
2019-02-14T03:22:10.366Z,99100.23
2019-02-14T03:25:22.242Z,99104.59
2019-02-14T03:28:36.951Z,99101.80
2019-02-14T03:31:52.394Z,99097.36
2019-02-14T03:35:11.151Z,99102.15
2019-02-14T03:38:22.343Z,99100.28
2019-02-14T03:41:29.358Z,99109.47
2019-02-14T03:44:37.675Z,99107.34
2019-02-14T03:47:44.561Z,99109.13
2019-02-14T03:50:52.648Z,99100.02
2019-02-14T03:53:59.816Z,99104.86
2019-02-14T03:57:06.659Z,99108.12
2019-02-14T04:00:15.440Z,99113.66
2019-02-14T04:03:22.618Z,99106.47
2019-02-14T04:06:29.536Z,99106.55
2019-02-14T04:09:36.443Z,99100.85
2019-02-14T04:12:43.294Z,99094.98
2019-02-14T04:15:50.295Z,99100.20
2019-02-14T04:18:57.221Z,99088.00
2019-02-14T04:22:04.053Z,99095.32
2019-02-14T04:25:11.099Z,99099.20
2019-02-14T04:28:19.221Z,99098.72
2019-02-14T04:31:26.312Z,99098.19
2019-02-14T04:34:33.220Z,99096.37
2019-02-14T04:37:40.077Z,99099.98
2019-02-14T04:40:47.335Z,99104.94
2019-02-14T04:43:54.200Z,99103.90
2019-02-14T04:47:01.117Z,99099.55
2019-02-14T04:50:08.488Z,99101.72
2019-02-14T04:53:15.666Z,99097.19
2019-02-14T04:56:22.525Z,99101.94
2019-02-14T04:59:29.846Z,99109.26
2019-02-14T05:02:36.775Z,99113.52
2019-02-14T05:05:43.694Z,99112.65
2019-02-14T05:08:50.669Z,99110.25
2019-02-14T05:11:57.669Z,99109.91
2019-02-14T05:15:04.590Z,99115.17
2019-02-14T05:18:11.505Z,99123.88
2019-02-14T05:21:18.371Z,99122.19
2019-02-14T05:24:25.394Z,99116.53
2019-02-14T05:27:32.355Z,99103.33
2019-02-14T05:30:39.195Z,99104.59
2019-02-14T05:33:46.035Z,99107.47
2019-02-14T05:36:55.235Z,99109.98
2019-02-14T05:40:01.499Z,99123.31
2019-02-14T05:43:08.606Z,99117.73
2019-02-14T05:46:15.522Z,99115.91
2019-02-14T05:49:22.541Z,99112.72
2019-02-14T05:52:29.587Z,99111.46
2019-02-14T05:55:36.882Z,99109.47
2019-02-14T05:58:43.863Z,99111.28
2019-02-14T06:01:51.339Z,99132.09
2019-02-14T06:04:58.197Z,99111.91
2019-02-14T06:08:05.169Z,99117.94
2019-02-14T06:11:12.038Z,99113.17
2019-02-14T06:14:18.861Z,99128.66
2019-02-14T06:17:25.766Z,99148.83
2019-02-14T06:20:32.924Z,99137.58
2019-02-14T06:23:39.821Z,99130.83
2019-02-14T06:26:46.647Z,99134.41
2019-02-14T06:29:53.528Z,99137.52
2019-02-14T06:33:00.350Z,99145.04
2019-02-14T06:36:07.429Z,99133.27
2019-02-14T06:39:14.428Z,99143.44
2019-02-14T06:42:21.277Z,99166.92
2019-02-14T06:45:28.532Z,99159.16
2019-02-14T06:48:36.904Z,99129.77
2019-02-14T06:51:43.817Z,99148.06
2019-02-14T06:54:50.658Z,99159.41
2019-02-14T06:57:57.690Z,99160.02
2019-02-14T07:01:04.504Z,99163.09
2019-02-14T07:04:11.368Z,99146.84
2019-02-14T07:07:19.194Z,99167.52
2019-02-14T07:10:26.338Z,99142.19
2019-02-14T07:13:33.230Z,99140.01
2019-02-14T07:16:40.154Z,99167.17
2019-02-14T07:19:47.089Z,99143.69
2019-02-14T07:22:54.109Z,99160.02
2019-02-14T07:26:00.909Z,99155.30
2019-02-14T07:29:07.800Z,99157.38
2019-02-14T07:32:14.812Z,99159.42
2019-02-14T07:35:21.816Z,99148.00
2019-02-14T07:38:28.742Z,99159.36
2019-02-14T07:41:35.841Z,99165.63
2019-02-14T07:44:42.730Z,99159.55
2019-02-14T07:47:49.551Z,99162.56
2019-02-14T07:50:56.582Z,99170.52
2019-02-14T07:54:03.480Z,99179.64
2019-02-14T07:57:10.338Z,99193.34
2019-02-14T08:00:18.473Z,99186.83
2019-02-14T08:03:28.061Z,99187.73
2019-02-14T08:06:37.743Z,99190.12
2019-02-14T08:09:45.074Z,99190.26
2019-02-14T08:12:52.180Z,99200.24
2019-02-14T08:15:58.968Z,99201.05
2019-02-14T08:19:05.876Z,99191.48
2019-02-14T08:22:12.812Z,99198.19
2019-02-14T08:25:19.821Z,99198.28
2019-02-14T08:28:26.831Z,99184.20
2019-02-14T08:31:33.736Z,99185.30
2019-02-14T08:34:41.057Z,99184.29
2019-02-14T08:37:48.364Z,99185.91
2019-02-14T08:40:55.463Z,99173.13
2019-02-14T08:44:02.567Z,99176.89
2019-02-14T08:47:10.427Z,99182.79
2019-02-14T08:50:17.860Z,99183.70
2019-02-14T08:53:27.756Z,99189.27
2019-02-14T08:56:34.698Z,99215.64
2019-02-14T08:59:41.603Z,99217.77
2019-02-14T09:02:48.810Z,99210.78
2019-02-14T09:05:56.022Z,99208.23
2019-02-14T09:09:03.715Z,99209.71
2019-02-14T09:12:10.664Z,99205.63
2019-02-14T09:15:17.524Z,99199.22
2019-02-14T09:18:26.845Z,99199.34
2019-02-14T09:21:34.170Z,99211.78
2019-02-14T09:24:41.307Z,99232.72
2019-02-14T09:27:48.181Z,99235.12
2019-02-14T09:30:55.090Z,99217.50
2019-02-14T09:34:02.370Z,99233.28
2019-02-14T09:37:09.545Z,99237.89
2019-02-14T09:40:16.845Z,99236.04
2019-02-14T09:43:29.827Z,99243.43
2019-02-14T09:46:33.543Z,99241.14
2019-02-14T09:49:40.637Z,99226.04
2019-02-14T09:52:48.494Z,99227.09
2019-02-14T09:55:55.389Z,99223.34
2019-02-14T09:59:02.223Z,99215.02
2019-02-14T10:02:09.182Z,99222.47
2019-02-14T10:05:19.844Z,99214.77
2019-02-14T10:08:27.742Z,99201.92
2019-02-14T10:11:34.696Z,99196.72
2019-02-14T10:14:41.466Z,99198.13
2019-02-14T10:17:48.352Z,99202.81
2019-02-14T10:20:55.286Z,99199.16
2019-02-14T10:24:02.921Z,99204.39
2019-02-14T10:27:10.091Z,99199.49
2019-02-14T10:30:19.024Z,99185.83
2019-02-14T10:33:27.389Z,99186.06
2019-02-14T10:36:34.303Z,99170.78
2019-02-14T10:39:41.148Z,99159.02
2019-02-14T10:42:48.513Z,99151.94
2019-02-14T10:45:55.679Z,99148.66
2019-02-14T10:49:02.889Z,99137.67
2019-02-14T10:52:09.955Z,99135.97
2019-02-14T10:55:17.207Z,99135.06
2019-02-14T10:58:24.271Z,99117.41
2019-02-14T11:01:31.310Z,99119.14
2019-02-14T11:04:38.374Z,99120.77
2019-02-14T11:07:45.497Z,99121.01
2019-02-14T11:10:53.426Z,99128.22
2019-02-14T11:14:00.445Z,99117.55
2019-02-14T11:17:07.784Z,99119.78
2019-02-14T11:20:15.297Z,99119.36
2019-02-14T11:23:22.494Z,99112.55
2019-02-14T11:26:29.396Z,99116.81
2019-02-14T11:29:36.430Z,99117.75
2019-02-14T11:32:43.629Z,99113.91
2019-02-14T11:35:50.922Z,99120.36
2019-02-14T11:38:58.390Z,99124.20
2019-02-14T11:42:06.737Z,99128.45
2019-02-14T11:45:16.933Z,99133.15
2019-02-14T11:48:23.708Z,99140.34
2019-02-14T11:51:30.543Z,99143.85
2019-02-14T11:54:39.795Z,99135.73
2019-02-14T11:57:46.889Z,99137.48
2019-02-14T12:00:53.868Z,99137.47
2019-02-14T12:04:00.696Z,99127.27
2019-02-14T12:07:07.740Z,99130.67
2019-02-14T12:10:15.938Z,99114.90
2019-02-14T12:13:23.018Z,99117.45
2019-02-14T12:16:29.955Z,99117.90
2019-02-14T12:19:36.935Z,99119.18
2019-02-14T12:22:46.569Z,99123.02
2019-02-14T12:25:53.786Z,99123.42
2019-02-14T12:29:00.705Z,99128.12
2019-02-14T12:32:07.560Z,99124.17
2019-02-14T12:35:16.995Z,99119.52
2019-02-14T12:38:23.866Z,99119.08
2019-02-14T12:41:30.757Z,99119.08
2019-02-14T12:44:37.669Z,99113.52
2019-02-14T12:47:45.086Z,99107.16
2019-02-14T12:50:52.008Z,99101.55
2019-02-14T12:53:58.841Z,99087.13
2019-02-14T12:57:05.642Z,99080.36
2019-02-14T13:00:17.392Z,99080.33
2019-02-14T13:03:24.259Z,99075.57
2019-02-14T13:06:31.140Z,99066.50
2019-02-14T13:09:37.976Z,99060.55
2019-02-14T13:12:46.821Z,99054.19
2019-02-14T13:15:53.715Z,99042.66
2019-02-14T13:19:00.750Z,99034.94
2019-02-14T13:22:08.130Z,99033.58
2019-02-14T13:25:15.100Z,99033.27
2019-02-14T13:28:25.007Z,99045.01
2019-02-14T13:31:32.607Z,99043.80
2019-02-14T13:34:39.560Z,99040.41
2019-02-14T13:37:47.791Z,99043.83
2019-02-14T13:40:54.788Z,99048.47
2019-02-14T13:44:01.739Z,99047.14
2019-02-14T13:47:10.649Z,99056.72
2019-02-14T13:50:18.874Z,99059.62
2019-02-14T13:53:25.721Z,99068.50
2019-02-14T13:56:35.791Z,99066.80
2019-02-14T13:59:42.728Z,99067.23
2019-02-14T14:02:49.551Z,99065.07
2019-02-14T14:05:56.462Z,99060.30
2019-02-14T14:09:03.579Z,99059.29
2019-02-14T14:12:11.689Z,99053.91
2019-02-14T14:15:18.922Z,99055.81
2019-02-14T14:18:26.256Z,99057.91
2019-02-14T14:21:34.033Z,99057.92
2019-02-14T14:24:40.825Z,99056.36
2019-02-14T14:27:47.838Z,99058.45
2019-02-14T14:30:55.056Z,99065.20
2019-02-14T14:34:01.965Z,99064.54
2019-02-14T14:37:08.764Z,99069.41
2019-02-14T14:40:20.813Z,99070.86
2019-02-14T14:43:54.981Z,99069.12
2019-02-14T14:47:04.917Z,99069.23
2019-02-14T14:50:12.339Z,99063.64
2019-02-14T14:53:19.740Z,99059.05
2019-02-14T14:56:26.661Z,99061.14
2019-02-14T14:59:33.610Z,99060.91
2019-02-14T15:02:43.573Z,99067.83
2019-02-14T15:05:50.423Z,99070.22
2019-02-14T15:08:57.236Z,99069.20
2019-02-14T15:12:04.391Z,99067.63
2019-02-14T15:15:11.281Z,99067.95
2019-02-14T15:18:18.542Z,99064.20
2019-02-14T15:21:28.217Z,99062.51
2019-02-14T15:24:35.250Z,99059.22
2019-02-14T15:27:42.121Z,99057.28
2019-02-14T15:30:49.026Z,99063.30
2019-02-14T15:33:57.899Z,99070.17
2019-02-14T15:37:04.588Z,99070.52
2019-02-14T15:40:11.536Z,99066.75
2019-02-14T15:43:18.700Z,99064.13
2019-02-14T15:46:28.293Z,99063.39
2019-02-14T15:49:35.098Z,99070.66
2019-02-14T15:52:41.962Z,99071.53
2019-02-14T15:55:48.868Z,99066.59
2019-02-14T15:58:57.398Z,99074.26
2019-02-14T16:02:06.165Z,99074.28
2019-02-14T16:05:14.517Z,99067.95
2019-02-14T16:08:23.917Z,99059.50
2019-02-14T16:11:31.022Z,99056.53
2019-02-14T16:14:38.247Z,99061.68
2019-02-14T16:17:45.200Z,99062.95
2019-02-14T16:20:52.321Z,99063.41
2019-02-14T16:23:59.385Z,99059.52
2019-02-14T16:27:06.477Z,99048.41
2019-02-14T16:30:13.364Z,99050.53
2019-02-14T16:33:20.312Z,99047.98
2019-02-14T16:36:27.679Z,99051.38
2019-02-14T16:39:34.773Z,99044.95
2019-02-14T16:42:41.684Z,99049.95
2019-02-14T16:45:48.909Z,99047.20
2019-02-14T16:48:55.964Z,99048.05
2019-02-14T16:52:03.290Z,99047.55
2019-02-14T16:55:10.208Z,99053.88
2019-02-14T16:58:17.097Z,99051.77
2019-02-14T17:01:24.225Z,99060.77
2019-02-14T17:04:32.820Z,99046.93
2019-02-14T17:07:39.881Z,99048.41
2019-02-14T17:10:46.970Z,99051.68
2019-02-14T17:13:54.031Z,99050.70
2019-02-14T17:17:01.300Z,99055.63
2019-02-14T17:20:10.773Z,99061.47
2019-02-14T17:23:18.198Z,99064.48
2019-02-14T17:26:25.356Z,99064.39
2019-02-14T17:29:33.425Z,99066.81
2019-02-14T17:32:40.274Z,99063.53
2019-02-14T17:35:47.318Z,99062.36
2019-02-14T17:38:54.485Z,99070.66
2019-02-14T17:42:01.479Z,99074.31
2019-02-14T17:45:08.784Z,99078.47
2019-02-14T17:48:18.380Z,99079.92
2019-02-14T17:51:25.194Z,99084.16
2019-02-14T17:54:32.131Z,99080.66
2019-02-14T17:57:39.388Z,99085.07
2019-02-14T18:00:46.844Z,99085.60
2019-02-14T18:03:53.899Z,99086.41
2019-02-14T18:07:00.802Z,99087.88
2019-02-14T18:10:09.718Z,99086.00
2019-02-14T18:13:16.709Z,99084.89
2019-02-14T18:16:23.942Z,99088.34
2019-02-14T18:19:30.893Z,99090.48
2019-02-14T18:22:38.016Z,99089.86
2019-02-14T18:25:46.034Z,99084.17
2019-02-14T18:28:53.897Z,99082.11
2019-02-14T18:32:01.015Z,99085.27
2019-02-14T18:35:09.273Z,99087.97
2019-02-14T18:38:16.707Z,99092.77
2019-02-14T18:41:25.299Z,99094.68
2019-02-14T18:44:32.788Z,99092.72
2019-02-14T18:47:41.114Z,99094.81
2019-02-14T18:50:48.549Z,99090.84
2019-02-14T18:53:56.206Z,99088.63
2019-02-14T18:57:03.207Z,99090.30
2019-02-14T19:00:13.784Z,99084.80
2019-02-14T19:03:20.746Z,99086.06
2019-02-14T19:06:27.642Z,99089.09
2019-02-14T19:09:35.086Z,99087.66
2019-02-14T19:12:41.947Z,99089.98
2019-02-14T19:15:49.302Z,99089.88
2019-02-14T19:18:56.302Z,99085.52
2019-02-14T19:22:03.704Z,99082.41
2019-02-14T19:25:10.834Z,99081.28
2019-02-14T19:28:19.381Z,99090.71
2019-02-14T19:31:27.039Z,99090.59
2019-02-14T19:34:34.086Z,99093.13
2019-02-14T19:37:41.361Z,99089.06
2019-02-14T19:40:48.360Z,99099.23
2019-02-14T19:43:55.221Z,99097.65
2019-02-14T19:47:02.233Z,99095.06
2019-02-14T19:50:10.231Z,99097.75
2019-02-14T19:53:18.408Z,99101.27
2019-02-14T19:56:25.361Z,99099.66
2019-02-14T19:59:32.302Z,99105.96
2019-02-14T20:02:39.301Z,99110.26
2019-02-14T20:05:46.315Z,99100.49
2019-02-14T20:08:53.448Z,99102.44
2019-02-14T20:12:00.823Z,99099.61
2019-02-14T20:15:13.097Z,99102.98
2019-02-14T20:18:20.083Z,99102.61
2019-02-14T20:21:27.947Z,99095.78
2019-02-14T20:24:34.959Z,99086.58
2019-02-14T20:27:45.838Z,99091.08
2019-02-14T20:30:53.446Z,99089.91
2019-02-14T20:34:00.382Z,99091.08
2019-02-14T20:37:07.447Z,99097.88
2019-02-14T20:40:14.537Z,99090.75
2019-02-14T20:43:21.444Z,99098.40
2019-02-14T20:46:28.474Z,99094.20
2019-02-14T20:49:36.379Z,99089.80
2019-02-14T20:52:43.277Z,99095.33
2019-02-14T20:55:50.400Z,99095.91
2019-02-14T20:58:57.490Z,99092.16
2019-02-14T21:02:06.511Z,99093.74
2019-02-14T21:05:13.605Z,99095.76
2019-02-14T21:08:20.489Z,99087.92
2019-02-14T21:11:27.560Z,99092.77
2019-02-14T21:14:34.615Z,99087.95
2019-02-14T21:17:41.559Z,99085.75
2019-02-14T21:20:48.502Z,99080.69
2019-02-14T21:23:55.293Z,99080.80
2019-02-14T21:27:03.360Z,99078.63
2019-02-14T21:30:11.458Z,99079.42
2019-02-14T21:33:19.683Z,99079.89
2019-02-14T21:36:26.926Z,99076.24
2019-02-14T21:39:33.982Z,99075.59
2019-02-14T21:42:40.986Z,99070.60
2019-02-14T21:45:47.961Z,99065.75
2019-02-14T21:48:54.914Z,99065.64
2019-02-14T21:52:03.065Z,99061.50
2019-02-14T21:55:10.698Z,99063.13
2019-02-14T21:58:17.640Z,99054.56
2019-02-14T22:01:27.008Z,99061.10
2019-02-14T22:04:34.064Z,99062.98
2019-02-14T22:07:41.009Z,99063.83
2019-02-14T22:10:47.904Z,99059.97
2019-02-14T22:13:54.882Z,99077.05
2019-02-14T22:17:04.108Z,99069.27
2019-02-14T22:20:14.028Z,99069.67
2019-02-14T22:23:21.201Z,99068.01
2019-02-14T22:26:27.990Z,99066.08
2019-02-14T22:29:34.955Z,99066.48
2019-02-14T22:32:41.812Z,99064.19
2019-02-14T22:35:49.808Z,99061.78
2019-02-14T22:38:56.655Z,99064.70
2019-02-14T22:42:06.173Z,99062.96
2019-02-14T22:45:13.665Z,99063.75
2019-02-14T22:48:20.791Z,99058.27
2019-02-14T22:51:30.819Z,99063.08
2019-02-14T22:54:37.767Z,99061.69
2019-02-14T22:57:44.553Z,99063.59
2019-02-14T23:00:59.694Z,99058.02
2019-02-14T23:07:15.480Z,99064.07
2019-02-14T23:10:23.113Z,99063.87
2019-02-14T23:13:30.169Z,99063.83
2019-02-14T23:16:37.178Z,99067.30
2019-02-14T23:19:44.091Z,99073.22
2019-02-14T23:22:50.921Z,99068.87
2019-02-14T23:26:00.854Z,99066.16
2019-02-14T23:29:09.796Z,99075.28
2019-02-14T23:32:16.707Z,99076.76
2019-02-14T23:35:23.582Z,99079.77
2019-02-14T23:38:31.065Z,99083.20
2019-02-14T23:41:38.117Z,99085.52
2019-02-14T23:44:46.010Z,99092.27
2019-02-14T23:47:52.803Z,99091.88
2019-02-14T23:50:59.630Z,99097.23
2019-02-14T23:54:11.051Z,99095.67
2019-02-14T23:57:18.037Z,99093.71
